sensor_id;sensor_type;location;lat;lon;timestamp;P1;durP1;ratioP1;P2;durP2;ratioP2
55150;SDS011;41041;43.162;20.538;2023-04-08T00:01:38;35.95;;;19.83;;
55150;SDS011;41041;43.162;20.538;2023-04-08T00:04:03;54.10;;;23.45;;
55150;SDS011;41041;43.162;20.538;2023-04-08T00:06:30;34.33;;;19.52;;
55150;SDS011;41041;43.162;20.538;2023-04-08T00:08:56;40.88;;;19.33;;
55150;SDS011;41041;43.162;20.538;2023-04-08T00:11:27;37.85;;;20.65;;
55150;SDS011;41041;43.162;20.538;2023-04-08T00:13:52;36.47;;;20.58;;
55150;SDS011;41041;43.162;20.538;2023-04-08T00:16:18;31.10;;;19.30;;
55150;SDS011;41041;43.162;20.538;2023-04-08T00:18:44;37.60;;;19.88;;
55150;SDS011;41041;43.162;20.538;2023-04-08T00:21:11;33.85;;;19.73;;
55150;SDS011;41041;43.162;20.538;2023-04-08T00:23:37;35.17;;;20.60;;
55150;SDS011;41041;43.162;20.538;2023-04-08T00:28:34;38.58;;;21.52;;
55150;SDS011;41041;43.162;20.538;2023-04-08T00:31:00;63.70;;;26.92;;
55150;SDS011;41041;43.162;20.538;2023-04-08T00:33:25;50.00;;;28.92;;
55150;SDS011;41041;43.162;20.538;2023-04-08T00:35:51;43.70;;;27.13;;
55150;SDS011;41041;43.162;20.538;2023-04-08T00:38:17;43.83;;;27.48;;
55150;SDS011;41041;43.162;20.538;2023-04-08T00:40:42;44.55;;;25.55;;
55150;SDS011;41041;43.162;20.538;2023-04-08T00:43:08;37.28;;;23.33;;
55150;SDS011;41041;43.162;20.538;2023-04-08T00:45:34;38.05;;;22.77;;
55150;SDS011;41041;43.162;20.538;2023-04-08T00:48:02;33.85;;;20.98;;
55150;SDS011;41041;43.162;20.538;2023-04-08T00:50:28;31.52;;;20.27;;
55150;SDS011;41041;43.162;20.538;2023-04-08T00:52:54;81.88;;;32.40;;
55150;SDS011;41041;43.162;20.538;2023-04-08T00:55:20;54.88;;;27.75;;
55150;SDS011;41041;43.162;20.538;2023-04-08T00:57:45;50.55;;;28.02;;
55150;SDS011;41041;43.162;20.538;2023-04-08T01:00:12;39.22;;;22.08;;
55150;SDS011;41041;43.162;20.538;2023-04-08T01:08:51;35.40;;;17.88;;
55150;SDS011;41041;43.162;20.538;2023-04-08T01:11:18;29.13;;;18.38;;
55150;SDS011;41041;43.162;20.538;2023-04-08T01:13:45;35.33;;;19.95;;
55150;SDS011;41041;43.162;20.538;2023-04-08T01:16:15;90.85;;;35.75;;
55150;SDS011;41041;43.162;20.538;2023-04-08T01:18:42;38.35;;;23.00;;
55150;SDS011;41041;43.162;20.538;2023-04-08T01:21:09;57.40;;;27.27;;
55150;SDS011;41041;43.162;20.538;2023-04-08T01:29:08;41.25;;;22.67;;
55150;SDS011;41041;43.162;20.538;2023-04-08T01:31:36;34.70;;;21.02;;
55150;SDS011;41041;43.162;20.538;2023-04-08T01:34:05;32.38;;;19.33;;
55150;SDS011;41041;43.162;20.538;2023-04-08T01:36:31;34.80;;;21.25;;
55150;SDS011;41041;43.162;20.538;2023-04-08T01:39:00;30.13;;;17.75;;
55150;SDS011;41041;43.162;20.538;2023-04-08T01:41:29;28.48;;;17.42;;
55150;SDS011;41041;43.162;20.538;2023-04-08T01:43:55;28.55;;;18.33;;
55150;SDS011;41041;43.162;20.538;2023-04-08T01:46:22;29.35;;;17.38;;
55150;SDS011;41041;43.162;20.538;2023-04-08T01:48:48;31.00;;;19.10;;
55150;SDS011;41041;43.162;20.538;2023-04-08T01:51:15;33.45;;;19.60;;
55150;SDS011;41041;43.162;20.538;2023-04-08T01:53:41;39.58;;;22.67;;
55150;SDS011;41041;43.162;20.538;2023-04-08T01:56:10;33.00;;;19.95;;
55150;SDS011;41041;43.162;20.538;2023-04-08T01:58:38;28.58;;;19.55;;
55150;SDS011;41041;43.162;20.538;2023-04-08T02:01:08;33.97;;;20.58;;
55150;SDS011;41041;43.162;20.538;2023-04-08T02:06:09;45.83;;;23.92;;
55150;SDS011;41041;43.162;20.538;2023-04-08T02:08:35;34.95;;;21.35;;
55150;SDS011;41041;43.162;20.538;2023-04-08T02:13:31;26.85;;;17.58;;
55150;SDS011;41041;43.162;20.538;2023-04-08T02:16:14;21.88;;;14.48;;
55150;SDS011;41041;43.162;20.538;2023-04-08T02:18:42;21.25;;;13.82;;
55150;SDS011;41041;43.162;20.538;2023-04-08T02:21:12;49.03;;;29.48;;
55150;SDS011;41041;43.162;20.538;2023-04-08T02:23:39;36.72;;;22.48;;
55150;SDS011;41041;43.162;20.538;2023-04-08T02:26:19;30.40;;;18.42;;
55150;SDS011;41041;43.162;20.538;2023-04-08T02:28:46;25.30;;;17.05;;
55150;SDS011;41041;43.162;20.538;2023-04-08T02:31:15;22.00;;;14.20;;
55150;SDS011;41041;43.162;20.538;2023-04-08T02:33:42;70.90;;;41.92;;
55150;SDS011;41041;43.162;20.538;2023-04-08T02:36:08;44.35;;;27.70;;
55150;SDS011;41041;43.162;20.538;2023-04-08T02:38:35;33.78;;;21.40;;
55150;SDS011;41041;43.162;20.538;2023-04-08T02:41:01;34.97;;;20.65;;
55150;SDS011;41041;43.162;20.538;2023-04-08T02:43:27;32.25;;;20.50;;
55150;SDS011;41041;43.162;20.538;2023-04-08T02:48:28;33.03;;;20.75;;
55150;SDS011;41041;43.162;20.538;2023-04-08T02:50:54;36.00;;;21.23;;
55150;SDS011;41041;43.162;20.538;2023-04-08T02:53:21;24.30;;;15.27;;
55150;SDS011;41041;43.162;20.538;2023-04-08T02:55:48;26.35;;;16.92;;
55150;SDS011;41041;43.162;20.538;2023-04-08T02:58:14;27.17;;;17.40;;
55150;SDS011;41041;43.162;20.538;2023-04-08T03:00:40;25.95;;;17.50;;
55150;SDS011;41041;43.162;20.538;2023-04-08T03:03:06;24.60;;;15.95;;
55150;SDS011;41041;43.162;20.538;2023-04-08T03:05:32;27.52;;;16.77;;
55150;SDS011;41041;43.162;20.538;2023-04-08T03:07:58;26.30;;;15.82;;
55150;SDS011;41041;43.162;20.538;2023-04-08T03:10:24;27.60;;;16.60;;
55150;SDS011;41041;43.162;20.538;2023-04-08T03:12:50;26.85;;;17.63;;
55150;SDS011;41041;43.162;20.538;2023-04-08T03:15:16;27.42;;;17.73;;
55150;SDS011;41041;43.162;20.538;2023-04-08T03:17:42;33.47;;;18.92;;
55150;SDS011;41041;43.162;20.538;2023-04-08T03:20:09;38.42;;;24.30;;
55150;SDS011;41041;43.162;20.538;2023-04-08T03:22:35;36.80;;;23.63;;
55150;SDS011;41041;43.162;20.538;2023-04-08T03:25:02;39.83;;;23.17;;
55150;SDS011;41041;43.162;20.538;2023-04-08T03:27:28;33.67;;;22.95;;
55150;SDS011;41041;43.162;20.538;2023-04-08T03:29:54;31.13;;;22.00;;
55150;SDS011;41041;43.162;20.538;2023-04-08T03:32:22;37.53;;;23.45;;
55150;SDS011;41041;43.162;20.538;2023-04-08T03:34:48;32.53;;;21.80;;
55150;SDS011;41041;43.162;20.538;2023-04-08T03:37:17;38.60;;;23.33;;
55150;SDS011;41041;43.162;20.538;2023-04-08T03:39:43;36.40;;;22.92;;
55150;SDS011;41041;43.162;20.538;2023-04-08T03:42:10;37.35;;;23.60;;
55150;SDS011;41041;43.162;20.538;2023-04-08T03:44:36;46.80;;;26.45;;
55150;SDS011;41041;43.162;20.538;2023-04-08T03:47:02;36.55;;;22.73;;
55150;SDS011;41041;43.162;20.538;2023-04-08T03:54:25;40.67;;;22.02;;
55150;SDS011;41041;43.162;20.538;2023-04-08T03:56:51;34.97;;;23.05;;
55150;SDS011;41041;43.162;20.538;2023-04-08T03:59:18;48.92;;;27.98;;
55150;SDS011;41041;43.162;20.538;2023-04-08T04:01:44;50.25;;;28.83;;
55150;SDS011;41041;43.162;20.538;2023-04-08T04:04:10;55.90;;;31.60;;
55150;SDS011;41041;43.162;20.538;2023-04-08T04:06:36;51.90;;;29.90;;
55150;SDS011;41041;43.162;20.538;2023-04-08T04:09:02;50.67;;;30.55;;
55150;SDS011;41041;43.162;20.538;2023-04-08T04:11:44;43.53;;;27.38;;
55150;SDS011;41041;43.162;20.538;2023-04-08T04:14:10;41.47;;;27.60;;
55150;SDS011;41041;43.162;20.538;2023-04-08T04:16:36;44.53;;;27.42;;
55150;SDS011;41041;43.162;20.538;2023-04-08T04:19:02;39.05;;;24.52;;
55150;SDS011;41041;43.162;20.538;2023-04-08T04:21:30;34.38;;;22.30;;
55150;SDS011;41041;43.162;20.538;2023-04-08T04:23:56;40.53;;;22.98;;
55150;SDS011;41041;43.162;20.538;2023-04-08T04:26:22;38.85;;;24.08;;
55150;SDS011;41041;43.162;20.538;2023-04-08T04:28:49;38.55;;;25.95;;
55150;SDS011;41041;43.162;20.538;2023-04-08T04:31:19;35.78;;;23.45;;
55150;SDS011;41041;43.162;20.538;2023-04-08T04:33:45;31.98;;;21.88;;
55150;SDS011;41041;43.162;20.538;2023-04-08T04:36:12;34.33;;;21.58;;
55150;SDS011;41041;43.162;20.538;2023-04-08T04:38:38;37.20;;;22.58;;
55150;SDS011;41041;43.162;20.538;2023-04-08T04:41:04;32.53;;;21.42;;
55150;SDS011;41041;43.162;20.538;2023-04-08T04:43:30;37.97;;;22.63;;
55150;SDS011;41041;43.162;20.538;2023-04-08T04:45:56;38.25;;;21.27;;
55150;SDS011;41041;43.162;20.538;2023-04-08T04:48:23;36.17;;;21.90;;
55150;SDS011;41041;43.162;20.538;2023-04-08T04:50:56;38.50;;;23.95;;
55150;SDS011;41041;43.162;20.538;2023-04-08T04:53:22;38.03;;;23.48;;
55150;SDS011;41041;43.162;20.538;2023-04-08T04:55:50;45.08;;;25.70;;
55150;SDS011;41041;43.162;20.538;2023-04-08T04:58:16;39.03;;;23.75;;
55150;SDS011;41041;43.162;20.538;2023-04-08T05:00:43;46.83;;;25.08;;
55150;SDS011;41041;43.162;20.538;2023-04-08T05:03:09;37.97;;;24.52;;
55150;SDS011;41041;43.162;20.538;2023-04-08T05:05:35;38.10;;;24.42;;
55150;SDS011;41041;43.162;20.538;2023-04-08T05:08:01;40.35;;;24.95;;
55150;SDS011;41041;43.162;20.538;2023-04-08T05:10:27;36.75;;;23.38;;
55150;SDS011;41041;43.162;20.538;2023-04-08T05:12:53;62.42;;;37.78;;
55150;SDS011;41041;43.162;20.538;2023-04-08T05:15:20;42.28;;;26.20;;
55150;SDS011;41041;43.162;20.538;2023-04-08T05:17:46;42.47;;;25.75;;
55150;SDS011;41041;43.162;20.538;2023-04-08T05:20:12;39.85;;;26.05;;
55150;SDS011;41041;43.162;20.538;2023-04-08T05:22:38;49.45;;;28.45;;
55150;SDS011;41041;43.162;20.538;2023-04-08T05:25:04;51.50;;;31.75;;
55150;SDS011;41041;43.162;20.538;2023-04-08T05:27:30;48.47;;;31.48;;
55150;SDS011;41041;43.162;20.538;2023-04-08T05:29:57;41.42;;;24.77;;
55150;SDS011;41041;43.162;20.538;2023-04-08T05:32:23;38.47;;;24.55;;
55150;SDS011;41041;43.162;20.538;2023-04-08T05:34:49;56.33;;;31.90;;
55150;SDS011;41041;43.162;20.538;2023-04-08T05:37:15;64.10;;;34.15;;
55150;SDS011;41041;43.162;20.538;2023-04-08T05:39:41;52.63;;;27.40;;
55150;SDS011;41041;43.162;20.538;2023-04-08T05:42:08;32.78;;;21.23;;
55150;SDS011;41041;43.162;20.538;2023-04-08T05:44:35;36.00;;;22.92;;
55150;SDS011;41041;43.162;20.538;2023-04-08T05:47:01;33.85;;;22.33;;
55150;SDS011;41041;43.162;20.538;2023-04-08T05:49:27;52.60;;;31.08;;
55150;SDS011;41041;43.162;20.538;2023-04-08T05:51:52;80.35;;;43.80;;
55150;SDS011;41041;43.162;20.538;2023-04-08T05:54:18;90.78;;;52.08;;
55150;SDS011;41041;43.162;20.538;2023-04-08T05:56:44;89.93;;;49.53;;
55150;SDS011;41041;43.162;20.538;2023-04-08T05:59:10;86.35;;;50.55;;
55150;SDS011;41041;43.162;20.538;2023-04-08T06:01:36;85.40;;;50.75;;
55150;SDS011;41041;43.162;20.538;2023-04-08T06:04:01;90.60;;;49.00;;
55150;SDS011;41041;43.162;20.538;2023-04-08T06:06:27;87.28;;;49.55;;
55150;SDS011;41041;43.162;20.538;2023-04-08T06:08:53;96.10;;;56.45;;
55150;SDS011;41041;43.162;20.538;2023-04-08T06:11:18;83.00;;;49.78;;
55150;SDS011;41041;43.162;20.538;2023-04-08T06:13:44;110.75;;;61.40;;
55150;SDS011;41041;43.162;20.538;2023-04-08T06:16:13;111.03;;;58.25;;
55150;SDS011;41041;43.162;20.538;2023-04-08T06:18:43;81.88;;;48.17;;
55150;SDS011;41041;43.162;20.538;2023-04-08T06:21:11;102.82;;;55.17;;
55150;SDS011;41041;43.162;20.538;2023-04-08T06:23:37;81.22;;;48.35;;
55150;SDS011;41041;43.162;20.538;2023-04-08T06:26:02;78.57;;;48.33;;
55150;SDS011;41041;43.162;20.538;2023-04-08T06:31:03;74.65;;;48.05;;
55150;SDS011;41041;43.162;20.538;2023-04-08T06:33:30;67.00;;;43.08;;
55150;SDS011;41041;43.162;20.538;2023-04-08T06:36:05;73.00;;;45.63;;
55150;SDS011;41041;43.162;20.538;2023-04-08T06:38:31;65.82;;;43.08;;
55150;SDS011;41041;43.162;20.538;2023-04-08T06:41:01;61.00;;;40.00;;
55150;SDS011;41041;43.162;20.538;2023-04-08T06:43:28;65.30;;;40.42;;
55150;SDS011;41041;43.162;20.538;2023-04-08T06:45:54;49.63;;;33.08;;
55150;SDS011;41041;43.162;20.538;2023-04-08T06:48:20;34.78;;;23.27;;
55150;SDS011;41041;43.162;20.538;2023-04-08T06:50:47;53.15;;;31.98;;
55150;SDS011;41041;43.162;20.538;2023-04-08T06:53:13;54.22;;;34.08;;
55150;SDS011;41041;43.162;20.538;2023-04-08T06:55:39;48.00;;;30.52;;
55150;SDS011;41041;43.162;20.538;2023-04-08T06:58:05;39.53;;;26.27;;
55150;SDS011;41041;43.162;20.538;2023-04-08T07:00:30;39.67;;;26.23;;
55150;SDS011;41041;43.162;20.538;2023-04-08T07:02:56;50.75;;;31.92;;
55150;SDS011;41041;43.162;20.538;2023-04-08T07:05:22;55.78;;;34.95;;
55150;SDS011;41041;43.162;20.538;2023-04-08T07:07:48;56.25;;;32.50;;
55150;SDS011;41041;43.162;20.538;2023-04-08T07:10:13;46.63;;;31.88;;
55150;SDS011;41041;43.162;20.538;2023-04-08T07:12:39;52.95;;;29.55;;
55150;SDS011;41041;43.162;20.538;2023-04-08T07:15:05;52.35;;;30.20;;
55150;SDS011;41041;43.162;20.538;2023-04-08T07:17:32;42.90;;;26.30;;
55150;SDS011;41041;43.162;20.538;2023-04-08T07:19:58;32.80;;;21.02;;
55150;SDS011;41041;43.162;20.538;2023-04-08T07:22:24;33.75;;;20.90;;
55150;SDS011;41041;43.162;20.538;2023-04-08T07:24:50;42.58;;;24.23;;
55150;SDS011;41041;43.162;20.538;2023-04-08T07:27:16;29.75;;;19.73;;
55150;SDS011;41041;43.162;20.538;2023-04-08T07:29:42;31.25;;;20.35;;
55150;SDS011;41041;43.162;20.538;2023-04-08T07:32:11;28.30;;;20.00;;
55150;SDS011;41041;43.162;20.538;2023-04-08T07:34:37;29.33;;;18.90;;
55150;SDS011;41041;43.162;20.538;2023-04-08T07:37:03;25.65;;;17.80;;
55150;SDS011;41041;43.162;20.538;2023-04-08T07:39:29;29.02;;;18.77;;
55150;SDS011;41041;43.162;20.538;2023-04-08T07:41:55;30.23;;;18.83;;
55150;SDS011;41041;43.162;20.538;2023-04-08T07:44:21;27.45;;;18.73;;
55150;SDS011;41041;43.162;20.538;2023-04-08T07:49:26;33.20;;;21.67;;
55150;SDS011;41041;43.162;20.538;2023-04-08T07:51:52;30.88;;;21.83;;
55150;SDS011;41041;43.162;20.538;2023-04-08T07:54:18;25.38;;;18.92;;
55150;SDS011;41041;43.162;20.538;2023-04-08T07:56:44;26.30;;;17.95;;
55150;SDS011;41041;43.162;20.538;2023-04-08T07:59:10;27.65;;;16.55;;
55150;SDS011;41041;43.162;20.538;2023-04-08T08:01:36;23.95;;;15.35;;
55150;SDS011;41041;43.162;20.538;2023-04-08T08:04:02;23.88;;;15.30;;
55150;SDS011;41041;43.162;20.538;2023-04-08T08:06:29;26.67;;;16.38;;
55150;SDS011;41041;43.162;20.538;2023-04-08T08:08:56;25.05;;;16.70;;
55150;SDS011;41041;43.162;20.538;2023-04-08T08:11:22;23.33;;;14.80;;
55150;SDS011;41041;43.162;20.538;2023-04-08T08:13:48;22.83;;;15.27;;
55150;SDS011;41041;43.162;20.538;2023-04-08T08:16:15;18.75;;;14.38;;
55150;SDS011;41041;43.162;20.538;2023-04-08T08:18:41;19.38;;;12.98;;
55150;SDS011;41041;43.162;20.538;2023-04-08T08:21:07;23.00;;;12.95;;
55150;SDS011;41041;43.162;20.538;2023-04-08T08:23:33;19.58;;;13.40;;
55150;SDS011;41041;43.162;20.538;2023-04-08T08:28:36;17.75;;;11.50;;
55150;SDS011;41041;43.162;20.538;2023-04-08T08:31:05;15.05;;;10.88;;
55150;SDS011;41041;43.162;20.538;2023-04-08T08:33:34;15.95;;;11.18;;
55150;SDS011;41041;43.162;20.538;2023-04-08T08:36:00;16.55;;;12.45;;
55150;SDS011;41041;43.162;20.538;2023-04-08T08:38:29;15.90;;;12.13;;
55150;SDS011;41041;43.162;20.538;2023-04-08T08:41:00;15.75;;;11.90;;
55150;SDS011;41041;43.162;20.538;2023-04-08T08:43:28;16.83;;;12.18;;
55150;SDS011;41041;43.162;20.538;2023-04-08T08:45:57;18.88;;;12.88;;
55150;SDS011;41041;43.162;20.538;2023-04-08T08:48:23;17.98;;;12.15;;
55150;SDS011;41041;43.162;20.538;2023-04-08T08:50:50;18.30;;;11.90;;
55150;SDS011;41041;43.162;20.538;2023-04-08T08:53:16;19.35;;;11.85;;
55150;SDS011;41041;43.162;20.538;2023-04-08T08:58:48;13.63;;;10.07;;
55150;SDS011;41041;43.162;20.538;2023-04-08T09:07:08;14.63;;;9.10;;
55150;SDS011;41041;43.162;20.538;2023-04-08T09:09:50;15.05;;;9.10;;
55150;SDS011;41041;43.162;20.538;2023-04-08T09:15:20;15.45;;;9.20;;
55150;SDS011;41041;43.162;20.538;2023-04-08T09:17:46;18.38;;;9.13;;
55150;SDS011;41041;43.162;20.538;2023-04-08T09:20:12;15.95;;;10.13;;
55150;SDS011;41041;43.162;20.538;2023-04-08T09:22:58;18.27;;;9.02;;
55150;SDS011;41041;43.162;20.538;2023-04-08T09:25:28;12.80;;;8.85;;
55150;SDS011;41041;43.162;20.538;2023-04-08T09:27:56;12.48;;;7.72;;
55150;SDS011;41041;43.162;20.538;2023-04-08T09:30:22;13.38;;;8.35;;
55150;SDS011;41041;43.162;20.538;2023-04-08T09:32:55;16.00;;;10.05;;
55150;SDS011;41041;43.162;20.538;2023-04-08T09:35:22;15.23;;;9.27;;
55150;SDS011;41041;43.162;20.538;2023-04-08T09:37:48;16.95;;;10.55;;
55150;SDS011;41041;43.162;20.538;2023-04-08T09:40:15;16.38;;;9.60;;
55150;SDS011;41041;43.162;20.538;2023-04-08T09:42:46;13.93;;;8.60;;
55150;SDS011;41041;43.162;20.538;2023-04-08T09:45:13;12.02;;;7.68;;
55150;SDS011;41041;43.162;20.538;2023-04-08T09:47:46;14.05;;;6.80;;
55150;SDS011;41041;43.162;20.538;2023-04-08T09:50:15;10.18;;;5.80;;
55150;SDS011;41041;43.162;20.538;2023-04-08T09:52:43;9.40;;;6.10;;
55150;SDS011;41041;43.162;20.538;2023-04-08T09:55:10;14.88;;;5.50;;
55150;SDS011;41041;43.162;20.538;2023-04-08T10:00:08;12.15;;;5.72;;
55150;SDS011;41041;43.162;20.538;2023-04-08T10:03:01;10.13;;;6.07;;
55150;SDS011;41041;43.162;20.538;2023-04-08T10:05:36;11.43;;;6.30;;
55150;SDS011;41041;43.162;20.538;2023-04-08T10:08:03;10.85;;;6.47;;
55150;SDS011;41041;43.162;20.538;2023-04-08T10:10:29;11.80;;;5.78;;
55150;SDS011;41041;43.162;20.538;2023-04-08T10:12:55;7.65;;;5.15;;
55150;SDS011;41041;43.162;20.538;2023-04-08T10:17:49;10.20;;;5.47;;
55150;SDS011;41041;43.162;20.538;2023-04-08T10:20:40;12.68;;;5.60;;
55150;SDS011;41041;43.162;20.538;2023-04-08T10:23:07;11.32;;;5.25;;
55150;SDS011;41041;43.162;20.538;2023-04-08T10:25:37;11.55;;;5.15;;
55150;SDS011;41041;43.162;20.538;2023-04-08T10:30:53;9.27;;;4.32;;
55150;SDS011;41041;43.162;20.538;2023-04-08T10:33:22;8.30;;;4.28;;
55150;SDS011;41041;43.162;20.538;2023-04-08T10:35:53;7.40;;;4.40;;
55150;SDS011;41041;43.162;20.538;2023-04-08T10:38:19;7.63;;;4.13;;
55150;SDS011;41041;43.162;20.538;2023-04-08T10:40:49;10.27;;;4.35;;
55150;SDS011;41041;43.162;20.538;2023-04-08T10:43:15;8.15;;;3.75;;
55150;SDS011;41041;43.162;20.538;2023-04-08T10:45:42;6.25;;;4.00;;
55150;SDS011;41041;43.162;20.538;2023-04-08T10:50:38;12.80;;;4.10;;
55150;SDS011;41041;43.162;20.538;2023-04-08T10:53:05;10.80;;;4.28;;
55150;SDS011;41041;43.162;20.538;2023-04-08T10:55:32;8.02;;;3.88;;
55150;SDS011;41041;43.162;20.538;2023-04-08T10:58:08;7.20;;;3.70;;
55150;SDS011;41041;43.162;20.538;2023-04-08T11:03:08;27.70;;;4.03;;
55150;SDS011;41041;43.162;20.538;2023-04-08T11:05:34;8.82;;;3.63;;
55150;SDS011;41041;43.162;20.538;2023-04-08T11:08:01;10.55;;;3.47;;
55150;SDS011;41041;43.162;20.538;2023-04-08T11:10:28;4.68;;;2.90;;
55150;SDS011;41041;43.162;20.538;2023-04-08T11:15:38;4.80;;;3.40;;
55150;SDS011;41041;43.162;20.538;2023-04-08T11:18:04;8.18;;;3.72;;
55150;SDS011;41041;43.162;20.538;2023-04-08T11:20:31;10.07;;;3.47;;
55150;SDS011;41041;43.162;20.538;2023-04-08T11:23:00;6.65;;;3.03;;
55150;SDS011;41041;43.162;20.538;2023-04-08T11:25:26;5.45;;;3.70;;
55150;SDS011;41041;43.162;20.538;2023-04-08T11:27:52;6.88;;;3.80;;
55150;SDS011;41041;43.162;20.538;2023-04-08T11:30:18;8.98;;;4.20;;
55150;SDS011;41041;43.162;20.538;2023-04-08T11:32:45;8.18;;;4.18;;
55150;SDS011;41041;43.162;20.538;2023-04-08T11:35:11;8.60;;;4.40;;
55150;SDS011;41041;43.162;20.538;2023-04-08T11:37:38;10.43;;;4.15;;
55150;SDS011;41041;43.162;20.538;2023-04-08T11:40:08;9.32;;;4.55;;
55150;SDS011;41041;43.162;20.538;2023-04-08T11:42:35;10.45;;;4.25;;
55150;SDS011;41041;43.162;20.538;2023-04-08T11:45:01;11.98;;;4.85;;
55150;SDS011;41041;43.162;20.538;2023-04-08T11:47:34;8.63;;;4.50;;
55150;SDS011;41041;43.162;20.538;2023-04-08T11:50:00;9.40;;;4.15;;
55150;SDS011;41041;43.162;20.538;2023-04-08T11:52:39;7.68;;;3.85;;
55150;SDS011;41041;43.162;20.538;2023-04-08T11:55:06;7.95;;;4.40;;
55150;SDS011;41041;43.162;20.538;2023-04-08T11:57:32;9.38;;;4.00;;
55150;SDS011;41041;43.162;20.538;2023-04-08T11:59:58;12.40;;;5.78;;
55150;SDS011;41041;43.162;20.538;2023-04-08T12:02:24;56.63;;;6.15;;
55150;SDS011;41041;43.162;20.538;2023-04-08T12:04:50;23.33;;;4.90;;
55150;SDS011;41041;43.162;20.538;2023-04-08T12:07:16;7.75;;;5.03;;
55150;SDS011;41041;43.162;20.538;2023-04-08T12:09:42;82.60;;;7.15;;
55150;SDS011;41041;43.162;20.538;2023-04-08T12:12:08;37.22;;;6.43;;
55150;SDS011;41041;43.162;20.538;2023-04-08T12:14:34;94.22;;;7.80;;
55150;SDS011;41041;43.162;20.538;2023-04-08T12:17:00;15.32;;;5.13;;
55150;SDS011;41041;43.162;20.538;2023-04-08T12:19:27;9.57;;;5.70;;
55150;SDS011;41041;43.162;20.538;2023-04-08T12:21:53;11.90;;;5.18;;
55150;SDS011;41041;43.162;20.538;2023-04-08T12:24:19;8.52;;;4.97;;
55150;SDS011;41041;43.162;20.538;2023-04-08T12:26:47;8.32;;;3.80;;
55150;SDS011;41041;43.162;20.538;2023-04-08T12:29:13;79.82;;;7.47;;
55150;SDS011;41041;43.162;20.538;2023-04-08T12:31:40;15.82;;;4.25;;
55150;SDS011;41041;43.162;20.538;2023-04-08T12:34:23;15.07;;;5.30;;
55150;SDS011;41041;43.162;20.538;2023-04-08T12:36:49;17.92;;;3.90;;
55150;SDS011;41041;43.162;20.538;2023-04-08T12:39:15;99.32;;;8.07;;
55150;SDS011;41041;43.162;20.538;2023-04-08T12:41:41;6.93;;;4.22;;
55150;SDS011;41041;43.162;20.538;2023-04-08T12:44:07;13.93;;;5.15;;
55150;SDS011;41041;43.162;20.538;2023-04-08T12:46:33;105.93;;;7.18;;
55150;SDS011;41041;43.162;20.538;2023-04-08T12:49:01;14.10;;;3.50;;
55150;SDS011;41041;43.162;20.538;2023-04-08T12:51:27;57.40;;;5.15;;
55150;SDS011;41041;43.162;20.538;2023-04-08T12:54:00;60.60;;;6.97;;
55150;SDS011;41041;43.162;20.538;2023-04-08T12:56:27;29.80;;;4.72;;
55150;SDS011;41041;43.162;20.538;2023-04-08T12:58:53;60.33;;;6.18;;
55150;SDS011;41041;43.162;20.538;2023-04-08T13:01:20;12.80;;;4.35;;
55150;SDS011;41041;43.162;20.538;2023-04-08T13:03:46;43.10;;;5.32;;
55150;SDS011;41041;43.162;20.538;2023-04-08T13:06:12;11.23;;;5.28;;
55150;SDS011;41041;43.162;20.538;2023-04-08T13:08:39;10.65;;;5.07;;
55150;SDS011;41041;43.162;20.538;2023-04-08T13:11:06;20.25;;;5.90;;
55150;SDS011;41041;43.162;20.538;2023-04-08T13:13:32;18.08;;;4.43;;
55150;SDS011;41041;43.162;20.538;2023-04-08T13:15:58;6.07;;;3.80;;
55150;SDS011;41041;43.162;20.538;2023-04-08T13:18:24;7.22;;;3.97;;
55150;SDS011;41041;43.162;20.538;2023-04-08T13:20:50;7.45;;;4.05;;
55150;SDS011;41041;43.162;20.538;2023-04-08T13:23:17;9.02;;;4.35;;
55150;SDS011;41041;43.162;20.538;2023-04-08T13:25:52;7.65;;;3.33;;
55150;SDS011;41041;43.162;20.538;2023-04-08T13:28:18;52.75;;;8.80;;
55150;SDS011;41041;43.162;20.538;2023-04-08T13:30:44;7.60;;;4.05;;
55150;SDS011;41041;43.162;20.538;2023-04-08T13:33:10;23.65;;;3.78;;
55150;SDS011;41041;43.162;20.538;2023-04-08T13:35:36;6.85;;;4.00;;
55150;SDS011;41041;43.162;20.538;2023-04-08T13:38:02;6.93;;;3.85;;
55150;SDS011;41041;43.162;20.538;2023-04-08T13:40:28;12.40;;;4.78;;
55150;SDS011;41041;43.162;20.538;2023-04-08T13:42:54;9.05;;;3.75;;
55150;SDS011;41041;43.162;20.538;2023-04-08T13:45:21;8.02;;;3.80;;
55150;SDS011;41041;43.162;20.538;2023-04-08T13:47:47;6.35;;;3.53;;
55150;SDS011;41041;43.162;20.538;2023-04-08T13:50:13;7.45;;;3.42;;
55150;SDS011;41041;43.162;20.538;2023-04-08T13:52:39;7.05;;;3.40;;
55150;SDS011;41041;43.162;20.538;2023-04-08T13:55:06;8.45;;;3.80;;
55150;SDS011;41041;43.162;20.538;2023-04-08T13:57:32;6.70;;;4.43;;
55150;SDS011;41041;43.162;20.538;2023-04-08T13:59:58;9.27;;;4.35;;
55150;SDS011;41041;43.162;20.538;2023-04-08T14:02:24;5.75;;;3.90;;
55150;SDS011;41041;43.162;20.538;2023-04-08T14:04:50;6.60;;;3.90;;
55150;SDS011;41041;43.162;20.538;2023-04-08T14:07:17;20.45;;;7.82;;
55150;SDS011;41041;43.162;20.538;2023-04-08T14:09:44;46.13;;;8.32;;
55150;SDS011;41041;43.162;20.538;2023-04-08T14:12:10;17.60;;;5.22;;
55150;SDS011;41041;43.162;20.538;2023-04-08T14:14:36;24.05;;;6.95;;
55150;SDS011;41041;43.162;20.538;2023-04-08T14:17:03;6.95;;;3.95;;
55150;SDS011;41041;43.162;20.538;2023-04-08T14:19:29;7.25;;;3.72;;
55150;SDS011;41041;43.162;20.538;2023-04-08T14:21:56;14.73;;;3.70;;
55150;SDS011;41041;43.162;20.538;2023-04-08T14:24:22;13.68;;;5.45;;
55150;SDS011;41041;43.162;20.538;2023-04-08T14:26:48;8.68;;;3.83;;
55150;SDS011;41041;43.162;20.538;2023-04-08T14:29:14;5.38;;;3.10;;
55150;SDS011;41041;43.162;20.538;2023-04-08T14:31:40;3.58;;;2.65;;
55150;SDS011;41041;43.162;20.538;2023-04-08T14:34:06;3.92;;;3.05;;
55150;SDS011;41041;43.162;20.538;2023-04-08T14:36:32;4.82;;;3.17;;
55150;SDS011;41041;43.162;20.538;2023-04-08T14:38:58;4.05;;;2.80;;
55150;SDS011;41041;43.162;20.538;2023-04-08T14:41:25;6.10;;;3.00;;
55150;SDS011;41041;43.162;20.538;2023-04-08T14:43:51;8.52;;;3.28;;
55150;SDS011;41041;43.162;20.538;2023-04-08T14:46:17;7.43;;;4.90;;
55150;SDS011;41041;43.162;20.538;2023-04-08T14:48:44;6.22;;;4.45;;
55150;SDS011;41041;43.162;20.538;2023-04-08T14:51:10;7.65;;;3.63;;
55150;SDS011;41041;43.162;20.538;2023-04-08T14:53:36;19.08;;;3.60;;
55150;SDS011;41041;43.162;20.538;2023-04-08T14:56:03;9.05;;;3.42;;
55150;SDS011;41041;43.162;20.538;2023-04-08T14:58:30;20.55;;;3.92;;
55150;SDS011;41041;43.162;20.538;2023-04-08T15:00:56;20.83;;;3.70;;
55150;SDS011;41041;43.162;20.538;2023-04-08T15:03:24;8.20;;;3.67;;
55150;SDS011;41041;43.162;20.538;2023-04-08T15:05:50;4.95;;;3.08;;
55150;SDS011;41041;43.162;20.538;2023-04-08T15:08:16;5.10;;;3.15;;
55150;SDS011;41041;43.162;20.538;2023-04-08T15:10:53;5.32;;;3.10;;
55150;SDS011;41041;43.162;20.538;2023-04-08T15:13:19;6.70;;;3.20;;
55150;SDS011;41041;43.162;20.538;2023-04-08T15:15:45;4.72;;;3.15;;
55150;SDS011;41041;43.162;20.538;2023-04-08T15:18:12;5.35;;;3.00;;